Time;durP1;ratioP1;P1;durP2;ratioP2;P2;SDS_P1;SDS_P2;PMS_P1;PMS_P2;Temp;Humidity;BMP_temperature;BMP_pressure;BME280_temperature;BME280_humidity;BME280_pressure;Samples;Min_cycle;Max_cycle;Signal;HPM_P1;HPM_P2
2022/07/28 00:01:46;;;;;;;6.47;1.70;;;;;;;;;;5008003;28;20493;-53
2022/07/28 00:04:11;;;;;;;4.03;1.83;;;;;;;;;;5007007;28;20491;-53
2022/07/28 00:06:37;;;;;;;7.88;2.30;;;;;;;;;;5005766;28;20390;-49
2022/07/28 00:09:03;;;;;;;6.28;2.00;;;;;;;;;;5006575;28;20072;-49
2022/07/28 00:11:29;;;;;;;5.00;2.15;;;;;;;;;;5006496;28;20030;-51
2022/07/28 00:13:54;;;;;;;5.65;1.77;;;;;;;;;;5003688;28;20369;-50
2022/07/28 00:16:20;;;;;;;3.78;1.92;;;;;;;;;;5007507;28;20080;-49
2022/07/28 00:18:46;;;;;;;11.48;2.13;;;;;;;;;;5006721;28;20083;-49
2022/07/28 00:21:12;;;;;;;7.72;1.65;;;;;;;;;;5001779;28;20383;-51
2022/07/28 00:23:38;;;;;;;8.02;2.00;;;;;;;;;;5008184;28;20122;-52
2022/07/28 00:26:04;;;;;;;3.47;1.80;;;;;;;;;;5006252;28;20021;-50
2022/07/28 00:28:29;;;;;;;7.38;1.75;;;;;;;;;;5007103;28;20390;-48
2022/07/28 00:30:55;;;;;;;5.13;1.50;;;;;;;;;;5002821;28;20045;-54
2022/07/28 00:33:21;;;;;;;9.23;1.90;;;;;;;;;;5006958;28;20459;-49
2022/07/28 00:35:46;;;;;;;6.90;1.80;;;;;;;;;;5006016;28;20029;-49
2022/07/28 00:38:12;;;;;;;3.38;1.50;;;;;;;;;;5001609;28;20042;-51
2022/07/28 00:43:22;;;;;;;8.63;1.90;;;;;;;;;;5004878;28;20502;-49
2022/07/28 00:45:48;;;;;;;2.83;1.90;;;;;;;;;;5006392;28;20026;-50
2022/07/28 00:48:13;;;;;;;4.18;1.98;;;;;;;;;;5004242;28;20026;-48
2022/07/28 00:50:40;;;;;;;8.43;1.67;;;;;;;;;;5002286;28;20042;-50
2022/07/28 00:53:06;;;;;;;4.22;1.90;;;;;;;;;;5005807;28;20223;-54
2022/07/28 00:55:32;;;;;;;7.95;2.00;;;;;;;;;;5003422;28;20129;-51
2022/07/28 00:57:59;;;;;;;3.65;1.48;;;;;;;;;;5007646;28;20038;-49
2022/07/28 01:00:25;;;;;;;3.42;2.35;;;;;;;;;;5007298;28;20459;-52
2022/07/28 01:02:51;;;;;;;8.63;2.75;;;;;;;;;;5007294;28;20038;-51
2022/07/28 01:05:18;;;;;;;3.35;1.80;;;;;;;;;;5003501;28;20026;-48
2022/07/28 01:07:58;;;;;;;2.78;1.50;;;;;;;;;;5006348;28;20036;-52
2022/07/28 01:10:39;;;;;;;6.68;1.85;;;;;;;;;;5003131;28;20032;-48
2022/07/28 01:13:41;;;;;;;2.80;1.42;;;;;;;;;;5002012;28;20058;-49
2022/07/28 01:16:07;;;;;;;3.80;1.58;;;;;;;;;;4985030;28;20618;-49
2022/07/28 01:19:01;;;;;;;6.40;1.80;;;;;;;;;;4984796;28;20145;-51
2022/07/28 01:21:33;;;;;;;3.03;1.67;;;;;;;;;;4983419;28;20122;-53
2022/07/28 01:24:02;;;;;;;3.13;1.60;;;;;;;;;;4985499;28;20038;-50
2022/07/28 01:26:36;;;;;;;2.92;1.70;;;;;;;;;;4984697;28;20035;-49
2022/07/28 01:29:20;;;;;;;6.00;1.58;;;;;;;;;;4983502;28;20113;-49
2022/07/28 01:32:08;;;;;;;10.65;1.88;;;;;;;;;;4984491;28;20793;-49
2022/07/28 01:34:39;;;;;;;4.53;1.67;;;;;;;;;;4984816;28;20100;-53
2022/07/28 01:37:10;;;;;;;4.07;1.77;;;;;;;;;;4985792;28;20066;-50
2022/07/28 01:39:39;;;;;;;9.73;2.17;;;;;;;;;;4984119;28;20038;-54
2022/07/28 01:42:08;;;;;;;2.47;1.77;;;;;;;;;;4984508;28;20161;-51
2022/07/28 01:44:39;;;;;;;6.47;1.67;;;;;;;;;;4983235;28;20039;-53
2022/07/28 01:47:06;;;;;;;5.80;1.65;;;;;;;;;;4984720;28;20043;-49
2022/07/28 01:49:35;;;;;;;8.02;1.90;;;;;;;;;;4985071;28;20074;-53
2022/07/28 01:52:03;;;;;;;6.63;2.22;;;;;;;;;;4991909;28;20743;-50
2022/07/28 01:54:29;;;;;;;11.52;2.45;;;;;;;;;;5006393;28;20510;-51
2022/07/28 01:56:58;;;;;;;5.93;2.20;;;;;;;;;;5010144;28;20041;-52
2022/07/28 01:59:25;;;;;;;4.75;2.75;;;;;;;;;;5011396;28;20042;-49
2022/07/28 02:01:51;;;;;;;2.67;1.73;;;;;;;;;;5008378;28;20053;-55
2022/07/28 02:04:20;;;;;;;4.25;2.42;;;;;;;;;;5003594;28;20483;-49
2022/07/28 02:06:47;;;;;;;4.60;2.08;;;;;;;;;;5009140;28;20033;-50
2022/07/28 02:09:13;;;;;;;5.40;2.05;;;;;;;;;;5008427;28;20422;-51
2022/07/28 02:11:40;;;;;;;3.45;1.92;;;;;;;;;;5008757;28;20030;-50
2022/07/28 02:14:17;;;;;;;6.05;2.17;;;;;;;;;;5009239;28;20018;-48
2022/07/28 02:16:47;;;;;;;12.25;2.17;;;;;;;;;;5006162;28;20495;-50
2022/07/28 02:19:15;;;;;;;9.07;2.33;;;;;;;;;;5008449;28;20356;-48
2022/07/28 02:21:43;;;;;;;7.57;2.53;;;;;;;;;;5009474;28;20037;-54
2022/07/28 02:24:11;;;;;;;5.93;2.30;;;;;;;;;;5008918;28;20017;-51
2022/07/28 02:26:42;;;;;;;6.32;2.50;;;;;;;;;;5008292;28;20577;-50
2022/07/28 02:29:11;;;;;;;6.65;2.10;;;;;;;;;;5005262;28;20038;-53
2022/07/28 02:31:49;;;;;;;4.68;2.15;;;;;;;;;;5005968;28;20026;-55
2022/07/28 02:34:15;;;;;;;7.93;2.03;;;;;;;;;;5010678;28;20479;-50
2022/07/28 02:36:49;;;;;;;7.90;2.45;;;;;;;;;;5006988;28;20041;-49
2022/07/28 02:39:25;;;;;;;8.13;2.10;;;;;;;;;;5006981;28;20487;-49
2022/07/28 02:42:00;;;;;;;11.50;2.13;;;;;;;;;;5007663;28;20042;-50
2022/07/28 02:44:33;;;;;;;9.60;2.63;;;;;;;;;;5007917;28;20478;-51
2022/07/28 02:47:00;;;;;;;8.43;2.30;;;;;;;;;;5009044;28;20077;-50
2022/07/28 02:49:32;;;;;;;6.32;2.95;;;;;;;;;;5006378;28;20033;-49
2022/07/28 02:52:00;;;;;;;5.93;3.03;;;;;;;;;;5005953;28;20116;-49
2022/07/28 02:54:28;;;;;;;8.88;2.67;;;;;;;;;;5008571;28;20076;-49
2022/07/28 02:56:57;;;;;;;9.88;2.55;;;;;;;;;;5007411;28;20065;-53
2022/07/28 02:59:24;;;;;;;4.40;2.15;;;;;;;;;;5009405;28;20498;-50
2022/07/28 03:01:52;;;;;;;12.18;2.83;;;;;;;;;;5007093;28;20046;-52
2022/07/28 03:07:04;;;;;;;3.92;2.35;;;;;;;;;;5003508;28;20033;-50
2022/07/28 03:09:30;;;;;;;7.53;2.53;;;;;;;;;;5005554;28;20033;-50
2022/07/28 03:11:56;;;;;;;4.95;2.10;;;;;;;;;;5003511;28;20464;-50
2022/07/28 03:14:22;;;;;;;8.13;2.50;;;;;;;;;;5010954;28;20033;-50
2022/07/28 03:16:47;;;;;;;6.80;2.17;;;;;;;;;;5007877;28;20562;-50
2022/07/28 03:19:13;;;;;;;6.00;1.98;;;;;;;;;;5007462;28;20041;-50
2022/07/28 03:21:40;;;;;;;5.13;2.22;;;;;;;;;;5008602;28;20068;-50
2022/07/28 03:24:08;;;;;;;7.85;2.40;;;;;;;;;;5003937;28;20109;-49
2022/07/28 03:26:42;;;;;;;4.10;2.17;;;;;;;;;;5006037;28;20028;-48
2022/07/28 03:29:09;;;;;;;7.78;2.95;;;;;;;;;;5003017;28;20068;-48
2022/07/28 03:31:36;;;;;;;3.90;2.22;;;;;;;;;;5003698;28;20026;-55
2022/07/28 03:34:03;;;;;;;12.23;2.58;;;;;;;;;;5007202;28;20026;-48
2022/07/28 03:36:38;;;;;;;6.07;2.40;;;;;;;;;;5008724;28;20493;-48
2022/07/28 03:39:08;;;;;;;4.75;2.03;;;;;;;;;;5006529;28;20042;-49
2022/07/28 03:41:35;;;;;;;2.35;1.92;;;;;;;;;;5004827;28;20552;-51
2022/07/28 03:44:04;;;;;;;4.18;2.08;;;;;;;;;;5005475;28;22496;-49
2022/07/28 03:46:30;;;;;;;7.05;2.05;;;;;;;;;;5008276;28;20077;-50
2022/07/28 03:48:56;;;;;;;5.53;2.13;;;;;;;;;;5006044;28;20502;-49
2022/07/28 03:51:24;;;;;;;7.20;2.65;;;;;;;;;;5007817;28;20029;-49
2022/07/28 03:53:50;;;;;;;10.10;2.55;;;;;;;;;;5004095;28;20057;-48
2022/07/28 03:56:16;;;;;;;4.45;2.15;;;;;;;;;;5005912;28;20046;-53
2022/07/28 03:58:41;;;;;;;6.53;3.10;;;;;;;;;;5009357;28;20029;-49
2022/07/28 04:01:07;;;;;;;8.23;2.17;;;;;;;;;;5006403;28;20030;-50
2022/07/28 04:03:33;;;;;;;6.15;2.13;;;;;;;;;;5007393;28;20399;-52
2022/07/28 04:05:58;;;;;;;7.50;1.92;;;;;;;;;;5005762;28;20036;-49
2022/07/28 04:08:24;;;;;;;8.82;2.33;;;;;;;;;;5006141;28;20041;-52
2022/07/28 04:10:50;;;;;;;3.10;2.13;;;;;;;;;;5007340;28;20064;-53
2022/07/28 04:13:16;;;;;;;5.10;2.35;;;;;;;;;;5003937;28;20461;-51
2022/07/28 04:16:01;;;;;;;7.13;2.38;;;;;;;;;;5003121;28;20045;-53
2022/07/28 04:18:47;;;;;;;4.47;2.08;;;;;;;;;;5004690;28;20034;-54
2022/07/28 04:21:32;;;;;;;7.00;2.20;;;;;;;;;;5007538;28;20399;-51
2022/07/28 04:24:17;;;;;;;12.43;2.72;;;;;;;;;;5005880;28;20065;-56
2022/07/28 04:27:03;;;;;;;7.22;2.42;;;;;;;;;;5007645;28;20029;-54
2022/07/28 04:29:48;;;;;;;5.43;2.38;;;;;;;;;;5003590;28;20034;-53
2022/07/28 04:32:33;;;;;;;9.15;2.75;;;;;;;;;;5006179;28;20491;-51
2022/07/28 04:35:18;;;;;;;4.53;2.10;;;;;;;;;;5002552;28;20782;-53
2022/07/28 04:38:02;;;;;;;8.75;2.38;;;;;;;;;;5004177;28;20109;-48
2022/07/28 04:40:47;;;;;;;7.95;2.30;;;;;;;;;;5006092;28;20533;-54
2022/07/28 04:43:31;;;;;;;9.68;2.38;;;;;;;;;;5006708;28;20107;-53
2022/07/28 04:46:15;;;;;;;6.43;2.65;;;;;;;;;;5003303;28;20035;-53
2022/07/28 04:48:59;;;;;;;6.65;2.33;;;;;;;;;;5000750;28;20183;-52
2022/07/28 04:51:48;;;;;;;4.28;2.10;;;;;;;;;;5007315;28;20386;-51
2022/07/28 04:54:31;;;;;;;6.53;2.13;;;;;;;;;;5007269;28;20036;-50
2022/07/28 04:57:15;;;;;;;13.73;2.58;;;;;;;;;;5007467;28;20057;-53
2022/07/28 05:00:00;;;;;;;7.40;2.30;;;;;;;;;;5007104;28;20081;-54
2022/07/28 05:02:45;;;;;;;3.70;2.40;;;;;;;;;;5006712;28;20092;-53
2022/07/28 05:05:29;;;;;;;15.57;2.05;;;;;;;;;;5003323;28;20036;-49
2022/07/28 05:08:13;;;;;;;12.07;2.88;;;;;;;;;;5007162;28;20446;-50
2022/07/28 05:10:57;;;;;;;5.57;2.22;;;;;;;;;;5003824;28;20068;-54
2022/07/28 05:13:41;;;;;;;15.23;2.65;;;;;;;;;;5008619;28;20072;-48
2022/07/28 05:16:25;;;;;;;12.35;3.33;;;;;;;;;;5007513;28;20032;-51
2022/07/28 05:19:10;;;;;;;8.65;2.60;;;;;;;;;;5005852;28;20041;-53
2022/07/28 05:21:53;;;;;;;18.50;2.67;;;;;;;;;;5004145;28;20033;-51
2022/07/28 05:24:37;;;;;;;8.45;2.45;;;;;;;;;;5004853;28;20053;-55
2022/07/28 05:27:21;;;;;;;10.57;2.28;;;;;;;;;;5004853;28;20085;-54
2022/07/28 05:30:06;;;;;;;4.60;2.17;;;;;;;;;;5005727;28;20045;-54
2022/07/28 05:32:52;;;;;;;2.40;1.90;;;;;;;;;;5004653;28;20084;-53
2022/07/28 05:35:36;;;;;;;5.38;2.28;;;;;;;;;;5004569;28;20057;-51
2022/07/28 05:38:20;;;;;;;7.95;2.17;;;;;;;;;;4998796;28;20036;-54
2022/07/28 05:41:05;;;;;;;6.43;2.30;;;;;;;;;;5004440;28;20037;-54
2022/07/28 05:43:49;;;;;;;5.00;2.08;;;;;;;;;;5005067;28;20652;-54
2022/07/28 05:46:33;;;;;;;4.20;2.30;;;;;;;;;;5005121;28;20395;-54
2022/07/28 05:49:17;;;;;;;4.97;1.95;;;;;;;;;;5001759;28;20549;-54
2022/07/28 05:52:02;;;;;;;5.20;1.98;;;;;;;;;;5007420;28;20039;-50
2022/07/28 05:54:46;;;;;;;9.70;2.53;;;;;;;;;;5005109;28;20036;-51
2022/07/28 05:57:30;;;;;;;10.27;2.40;;;;;;;;;;5004563;28;20065;-54
2022/07/28 06:00:18;;;;;;;4.18;2.40;;;;;;;;;;5006100;28;20068;-52
2022/07/28 06:03:02;;;;;;;9.95;2.35;;;;;;;;;;5005038;28;20040;-54
2022/07/28 06:05:49;;;;;;;5.18;2.20;;;;;;;;;;5004407;28;20068;-55
2022/07/28 06:08:33;;;;;;;10.50;2.30;;;;;;;;;;5007201;28;20441;-55
2022/07/28 06:11:17;;;;;;;6.35;2.25;;;;;;;;;;5005260;28;20131;-53
2022/07/28 06:14:01;;;;;;;11.70;3.10;;;;;;;;;;5002342;28;20040;-51
2022/07/28 06:16:49;;;;;;;3.63;1.95;;;;;;;;;;5007029;28;20171;-52
2022/07/28 06:19:33;;;;;;;12.82;2.40;;;;;;;;;;5004940;28;20040;-52
2022/07/28 06:22:17;;;;;;;5.13;2.15;;;;;;;;;;5006170;28;20501;-51
2022/07/28 06:25:01;;;;;;;9.65;2.72;;;;;;;;;;5006397;28;20775;-52
2022/07/28 06:27:46;;;;;;;8.88;2.28;;;;;;;;;;5003875;28;20077;-54
2022/07/28 06:30:30;;;;;;;7.03;2.10;;;;;;;;;;4997986;28;20025;-49
2022/07/28 06:33:16;;;;;;;13.38;2.70;;;;;;;;;;5004216;28;20083;-54
2022/07/28 06:36:00;;;;;;;8.50;2.30;;;;;;;;;;5006541;28;20080;-51
2022/07/28 06:38:44;;;;;;;8.05;2.17;;;;;;;;;;5008779;28;20533;-52
2022/07/28 06:41:28;;;;;;;6.90;2.05;;;;;;;;;;5007560;28;20060;-54
2022/07/28 06:44:12;;;;;;;9.40;1.88;;;;;;;;;;5006942;28;20065;-50
2022/07/28 06:46:57;;;;;;;17.58;2.75;;;;;;;;;;5008239;28;20049;-55
2022/07/28 06:49:41;;;;;;;10.85;2.55;;;;;;;;;;5006192;28;20049;-53
2022/07/28 06:52:25;;;;;;;10.55;2.40;;;;;;;;;;5009385;28;20033;-49
2022/07/28 06:55:11;;;;;;;7.88;2.17;;;;;;;;;;5006730;28;20780;-49
2022/07/28 06:57:57;;;;;;;8.93;2.78;;;;;;;;;;5009953;28;20049;-54
2022/07/28 07:00:41;;;;;;;5.25;2.45;;;;;;;;;;5005172;28;20494;-53
2022/07/28 07:03:25;;;;;;;13.75;2.40;;;;;;;;;;5007376;28;20080;-49
2022/07/28 07:06:09;;;;;;;7.38;2.15;;;;;;;;;;5009069;28;20041;-52
2022/07/28 07:08:53;;;;;;;5.90;2.55;;;;;;;;;;5005675;28;20115;-50
2022/07/28 07:11:37;;;;;;;12.60;2.33;;;;;;;;;;5009241;28;20041;-53
2022/07/28 07:14:21;;;;;;;8.82;2.13;;;;;;;;;;5007916;28;20057;-50
2022/07/28 07:17:05;;;;;;;7.57;2.20;;;;;;;;;;5007264;28;20037;-50
2022/07/28 07:19:49;;;;;;;12.52;2.40;;;;;;;;;;5008057;28;20037;-53
2022/07/28 07:22:34;;;;;;;4.38;2.03;;;;;;;;;;5004703;28;20049;-52
2022/07/28 07:25:18;;;;;;;5.68;2.20;;;;;;;;;;5007267;28;20098;-51
2022/07/28 07:28:02;;;;;;;14.05;2.72;;;;;;;;;;5004735;28;20533;-50
2022/07/28 07:30:47;;;;;;;11.27;2.40;;;;;;;;;;5007618;28;20065;-50
2022/07/28 07:33:31;;;;;;;6.35;2.03;;;;;;;;;;5006821;28;20521;-51
2022/07/28 07:36:15;;;;;;;4.72;1.70;;;;;;;;;;5006556;28;20028;-50
2022/07/28 07:38:59;;;;;;;9.48;2.55;;;;;;;;;;5003237;28;20127;-54
2022/07/28 07:41:43;;;;;;;11.27;2.90;;;;;;;;;;5007310;28;20387;-48
2022/07/28 07:44:27;;;;;;;14.80;3.00;;;;;;;;;;5006435;28;20038;-50
2022/07/28 07:47:11;;;;;;;8.30;2.85;;;;;;;;;;5007462;28;20036;-49
2022/07/28 07:49:55;;;;;;;15.90;4.13;;;;;;;;;;5008068;28;20037;-51
2022/07/28 07:52:39;;;;;;;14.23;3.65;;;;;;;;;;5006205;28;20048;-54
2022/07/28 07:55:23;;;;;;;9.40;3.17;;;;;;;;;;5006514;28;20461;-48
2022/07/28 07:58:07;;;;;;;15.10;3.83;;;;;;;;;;5000990;28;20080;-53
2022/07/28 08:00:52;;;;;;;15.55;4.03;;;;;;;;;;5008129;28;20076;-48
2022/07/28 08:03:35;;;;;;;25.92;4.30;;;;;;;;;;5007071;28;20053;-54
2022/07/28 08:06:19;;;;;;;21.85;4.53;;;;;;;;;;5004861;28;20543;-52
2022/07/28 08:09:03;;;;;;;12.90;3.85;;;;;;;;;;5005892;28;20041;-54
2022/07/28 08:11:47;;;;;;;12.15;4.32;;;;;;;;;;5002513;28;20037;-48
2022/07/28 08:14:31;;;;;;;28.10;4.70;;;;;;;;;;5005267;28;20441;-52
2022/07/28 08:17:15;;;;;;;23.52;3.65;;;;;;;;;;5007650;28;20080;-51
2022/07/28 08:20:01;;;;;;;16.42;4.00;;;;;;;;;;5004224;28;20536;-51
2022/07/28 08:22:48;;;;;;;15.13;3.75;;;;;;;;;;5003738;28;20458;-49
2022/07/28 08:25:35;;;;;;;13.57;3.60;;;;;;;;;;5000869;28;20041;-50
2022/07/28 08:28:19;;;;;;;22.67;3.58;;;;;;;;;;5006355;28;20041;-50
2022/07/28 08:31:03;;;;;;;14.00;3.80;;;;;;;;;;5001200;28;20084;-52
2022/07/28 08:33:47;;;;;;;20.60;3.30;;;;;;;;;;5004807;28;20434;-48
2022/07/28 08:36:31;;;;;;;10.05;3.78;;;;;;;;;;5008272;28;20088;-54
2022/07/28 08:39:15;;;;;;;11.23;3.38;;;;;;;;;;5002798;28;20132;-53
2022/07/28 08:42:05;;;;;;;11.40;3.28;;;;;;;;;;5004488;28;20390;-55
2022/07/28 08:45:03;;;;;;;23.55;3.67;;;;;;;;;;5005245;28;20092;-53
2022/07/28 08:47:49;;;;;;;16.02;3.60;;;;;;;;;;5006338;28;20117;-53
2022/07/28 08:50:33;;;;;;;9.55;3.10;;;;;;;;;;5006458;28;20045;-51
2022/07/28 08:53:19;;;;;;;18.60;3.55;;;;;;;;;;5005419;28;20036;-52
2022/07/28 08:56:11;;;;;;;21.38;3.70;;;;;;;;;;4999377;28;20159;-54
2022/07/28 08:58:56;;;;;;;8.48;3.05;;;;;;;;;;5004801;28;20074;-49
2022/07/28 09:01:40;;;;;;;9.52;2.85;;;;;;;;;;5004330;28;20041;-49
2022/07/28 09:04:25;;;;;;;16.90;3.85;;;;;;;;;;5005436;28;20040;-50
2022/07/28 09:07:09;;;;;;;18.42;4.05;;;;;;;;;;4997728;28;20544;-50
2022/07/28 09:09:53;;;;;;;9.98;3.47;;;;;;;;;;5007226;28;20489;-49
2022/07/28 09:12:41;;;;;;;14.23;3.42;;;;;;;;;;5001496;28;20037;-50
2022/07/28 09:15:25;;;;;;;12.30;3.65;;;;;;;;;;5006519;28;20033;-54
2022/07/28 09:18:09;;;;;;;7.18;2.85;;;;;;;;;;5004619;28;20081;-54
2022/07/28 09:20:53;;;;;;;21.30;3.38;;;;;;;;;;5004519;28;20092;-51
2022/07/28 09:23:42;;;;;;;7.80;3.00;;;;;;;;;;5003373;28;20037;-53
2022/07/28 09:26:26;;;;;;;8.63;2.55;;;;;;;;;;5005876;28;20029;-48
2022/07/28 09:29:10;;;;;;;8.60;2.55;;;;;;;;;;5003635;28;20623;-53
2022/07/28 09:31:54;;;;;;;9.90;2.03;;;;;;;;;;5002564;28;20121;-54
2022/07/28 09:34:44;;;;;;;12.40;2.40;;;;;;;;;;5002780;28;20041;-50
2022/07/28 09:37:28;;;;;;;5.15;2.13;;;;;;;;;;5002467;28;20501;-49
2022/07/28 09:40:13;;;;;;;4.68;2.15;;;;;;;;;;5003565;28;20036;-55
2022/07/28 09:42:57;;;;;;;3.45;1.90;;;;;;;;;;5004093;28;20117;-52
2022/07/28 09:45:41;;;;;;;2.92;2.20;;;;;;;;;;5001991;28;20092;-50
2022/07/28 09:48:24;;;;;;;5.40;2.03;;;;;;;;;;5005110;28;20506;-50
2022/07/28 09:51:12;;;;;;;5.13;2.13;;;;;;;;;;5005482;28;20037;-56
2022/07/28 09:54:14;;;;;;;6.63;2.00;;;;;;;;;;5004714;28;20037;-49
2022/07/28 09:56:58;;;;;;;;;;;;;;;;;;5003266;28;20096;-51
2022/07/28 09:59:43;;;;;;;6.78;2.08;;;;;;;;;;5007400;28;20298;-53
2022/07/28 10:02:32;;;;;;;4.70;2.20;;;;;;;;;;5004247;28;20084;-51
2022/07/28 10:05:18;;;;;;;7.20;2.17;;;;;;;;;;5005293;28;20037;-55
2022/07/28 10:08:02;;;;;;;13.73;2.30;;;;;;;;;;5003094;28;20509;-49
2022/07/28 10:10:58;;;;;;;9.55;2.13;;;;;;;;;;5005590;28;20069;-51
2022/07/28 10:13:57;;;;;;;6.55;2.50;;;;;;;;;;5008539;28;20044;-52
2022/07/28 10:16:42;;;;;;;5.57;2.03;;;;;;;;;;5007065;28;20084;-50
2022/07/28 10:19:26;;;;;;;9.95;2.08;;;;;;;;;;5005348;28;20114;-49
2022/07/28 10:22:10;;;;;;;5.78;2.40;;;;;;;;;;5007680;28;20598;-52
2022/07/28 10:24:55;;;;;;;4.07;2.20;;;;;;;;;;5004997;28;20532;-53
2022/07/28 10:27:41;;;;;;;4.10;1.88;;;;;;;;;;5008328;28;20537;-50
2022/07/28 10:30:32;;;;;;;7.50;1.98;;;;;;;;;;5004096;28;20049;-51
2022/07/28 10:33:18;;;;;;;7.10;2.30;;;;;;;;;;5008967;28;20068;-53
2022/07/28 10:36:02;;;;;;;8.48;2.13;;;;;;;;;;5009380;28;20054;-52
2022/07/28 10:38:48;;;;;;;5.97;1.85;;;;;;;;;;5010275;28;20177;-53
2022/07/28 10:41:39;;;;;;;6.05;1.92;;;;;;;;;;5009123;28;20041;-49
2022/07/28 10:44:23;;;;;;;5.47;1.80;;;;;;;;;;5010336;28;20125;-49
2022/07/28 10:47:11;;;;;;;5.95;2.13;;;;;;;;;;5008410;28;20088;-54
2022/07/28 10:49:55;;;;;;;10.35;2.42;;;;;;;;;;5006080;28;20419;-54
2022/07/28 10:52:41;;;;;;;6.60;1.90;;;;;;;;;;5007455;28;20123;-51
2022/07/28 10:55:59;;;;;;;4.80;2.22;;;;;;;;;;5006455;28;20117;-49
2022/07/28 10:58:58;;;;;;;5.95;2.40;;;;;;;;;;5006045;28;20403;-49
2022/07/28 11:01:43;;;;;;;2.40;1.75;;;;;;;;;;5008268;28;20044;-49
2022/07/28 11:04:51;;;;;;;3.05;1.88;;;;;;;;;;5004363;28;20506;-50
2022/07/28 11:07:38;;;;;;;3.58;1.58;;;;;;;;;;5006331;28;20068;-54
2022/07/28 11:10:23;;;;;;;4.05;1.80;;;;;;;;;;5007044;28;20091;-51
2022/07/28 11:13:23;;;;;;;9.85;1.80;;;;;;;;;;5005612;28;20092;-50
2022/07/28 11:16:14;;;;;;;1.85;1.65;;;;;;;;;;5005967;28;20048;-50
2022/07/28 11:19:02;;;;;;;11.35;1.80;;;;;;;;;;5005283;28;20052;-51
2022/07/28 11:22:16;;;;;;;6.28;1.75;;;;;;;;;;5005291;28;20060;-52
2022/07/28 11:25:03;;;;;;;6.22;1.73;;;;;;;;;;5008560;28;20395;-50
2022/07/28 11:27:50;;;;;;;2.35;1.77;;;;;;;;;;5006486;28;20040;-53
2022/07/28 11:30:37;;;;;;;2.20;1.90;;;;;;;;;;5007379;28;20120;-52
2022/07/28 11:33:23;;;;;;;3.03;1.63;;;;;;;;;;5005568;28;20060;-49
2022/07/28 11:36:07;;;;;;;1.60;1.50;;;;;;;;;;5005346;28;20053;-53
2022/07/28 11:39:23;;;;;;;6.15;1.70;;;;;;;;;;5006722;28;20072;-48
2022/07/28 11:42:27;;;;;;;7.03;1.88;;;;;;;;;;5008109;28;20118;-52
2022/07/28 11:45:24;;;;;;;6.82;2.10;;;;;;;;;;5001125;28;20537;-50
2022/07/28 11:48:15;;;;;;;9.00;2.55;;;;;;;;;;5007079;28;20080;-51
2022/07/28 11:51:03;;;;;;;10.80;2.20;;;;;;;;;;5003441;28;20111;-49
2022/07/28 11:53:49;;;;;;;11.07;2.08;;;;;;;;;;5007426;28;20395;-52
2022/07/28 11:56:36;;;;;;;7.25;2.05;;;;;;;;;;5002709;28;20064;-54
2022/07/28 11:59:20;;;;;;;4.20;1.92;;;;;;;;;;5010226;28;20044;-49
2022/07/28 12:02:04;;;;;;;6.28;1.67;;;;;;;;;;5005693;28;20057;-52
2022/07/28 12:04:56;;;;;;;5.97;1.90;;;;;;;;;;5007441;28;20083;-51
2022/07/28 12:07:42;;;;;;;4.20;1.90;;;;;;;;;;5006123;28;20041;-51
2022/07/28 12:10:33;;;;;;;6.57;1.77;;;;;;;;;;5003479;28;20045;-53
2022/07/28 12:13:24;;;;;;;2.30;1.52;;;;;;;;;;5005970;28;20033;-55
2022/07/28 12:16:08;;;;;;;3.30;1.90;;;;;;;;;;5006226;28;20129;-55
2022/07/28 12:18:53;;;;;;;2.03;1.83;;;;;;;;;;5005182;28;20643;-50
2022/07/28 12:21:47;;;;;;;6.80;1.70;;;;;;;;;;5006602;28;20127;-51
2022/07/28 12:24:33;;;;;;;9.38;1.70;;;;;;;;;;5005896;28;20036;-55
2022/07/28 12:27:25;;;;;;;4.80;1.70;;;;;;;;;;5006575;28;20144;-53
2022/07/28 12:30:11;;;;;;;4.13;1.50;;;;;;;;;;5004940;28;20041;-55
2022/07/28 12:32:55;;;;;;;5.25;1.33;;;;;;;;;;5003391;28;20052;-55
2022/07/28 12:35:39;;;;;;;5.15;1.45;;;;;;;;;;5005938;28;20036;-53
2022/07/28 12:38:25;;;;;;;6.85;1.85;;;;;;;;;;5007083;28;20434;-50
2022/07/28 12:41:14;;;;;;;5.10;1.60;;;;;;;;;;5004683;28;20045;-51
2022/07/28 12:44:00;;;;;;;5.03;1.95;;;;;;;;;;5003341;28;20036;-54
2022/07/28 12:46:47;;;;;;;5.55;1.58;;;;;;;;;;5004105;28;20403;-56
2022/07/28 12:49:33;;;;;;;3.63;1.60;;;;;;;;;;5006323;28;20055;-51
2022/07/28 12:52:19;;;;;;;5.68;1.98;;;;;;;;;;5007559;28;20079;-54
2022/07/28 12:55:20;;;;;;;6.47;1.80;;;;;;;;;;5004576;28;20061;-55
2022/07/28 12:58:05;;;;;;;6.78;1.80;;;;;;;;;;5006235;28;20092;-54
2022/07/28 13:00:50;;;;;;;3.17;1.80;;;;;;;;;;5005693;28;20069;-50
2022/07/28 13:03:36;;;;;;;3.13;2.00;;;;;;;;;;5004494;28;20036;-52
2022/07/28 13:06:20;;;;;;;13.23;1.98;;;;;;;;;;5003198;28;20088;-52
2022/07/28 13:09:04;;;;;;;5.57;2.08;;;;;;;;;;5005867;28;20403;-53
2022/07/28 13:11:48;;;;;;;11.10;2.20;;;;;;;;;;5001455;28;20044;-52
2022/07/28 13:14:40;;;;;;;3.30;1.77;;;;;;;;;;5005289;28;20041;-52
2022/07/28 13:17:29;;;;;;;5.38;2.00;;;;;;;;;;4999071;28;20045;-52
2022/07/28 13:20:13;;;;;;;4.10;1.40;;;;;;;;;;5005127;28;20036;-48
2022/07/28 13:22:58;;;;;;;7.72;1.95;;;;;;;;;;5006902;28;20045;-50
2022/07/28 13:25:42;;;;;;;2.70;1.65;;;;;;;;;;5007581;28;20081;-49
2022/07/28 13:28:27;;;;;;;4.95;1.77;;;;;;;;;;5005913;28;20037;-51
2022/07/28 13:31:11;;;;;;;4.72;1.50;;;;;;;;;;5004515;28;20128;-53
2022/07/28 13:33:54;;;;;;;5.60;2.00;;;;;;;;;;5004723;28;20053;-50
2022/07/28 13:36:39;;;;;;;3.00;1.50;;;;;;;;;;5007854;28;20084;-53
2022/07/28 13:39:23;;;;;;;4.00;1.50;;;;;;;;;;5005545;28;20544;-51
2022/07/28 13:42:08;;;;;;;4.15;2.10;;;;;;;;;;5004466;28;20546;-51
2022/07/28 13:44:52;;;;;;;3.50;1.70;;;;;;;;;;5007072;28;20076;-52
2022/07/28 13:47:36;;;;;;;2.13;1.40;;;;;;;;;;5008952;28;20041;-52
2022/07/28 13:50:20;;;;;;;8.25;2.13;;;;;;;;;;5008993;28;20045;-48
2022/07/28 13:53:04;;;;;;;22.05;2.60;;;;;;;;;;5008875;28;20080;-50
2022/07/28 13:55:50;;;;;;;3.03;1.30;;;;;;;;;;5009162;28;20045;-51
2022/07/28 13:58:34;;;;;;;2.35;1.40;;;;;;;;;;5007704;28;20655;-53
2022/07/28 14:01:18;;;;;;;7.03;1.55;;;;;;;;;;5010368;28;20029;-49
2022/07/28 14:04:03;;;;;;;7.50;1.60;;;;;;;;;;5007463;28;20045;-48
2022/07/28 14:06:47;;;;;;;7.97;1.60;;;;;;;;;;5007036;28;20032;-54
2022/07/28 14:09:31;;;;;;;5.70;1.80;;;;;;;;;;5009443;28;20049;-51
2022/07/28 14:12:15;;;;;;;5.00;1.50;;;;;;;;;;5006319;28;20124;-55
2022/07/28 14:15:00;;;;;;;3.35;1.50;;;;;;;;;;5007524;28;20494;-48
2022/07/28 14:17:44;;;;;;;6.55;1.38;;;;;;;;;;5006025;28;20032;-50
2022/07/28 14:20:28;;;;;;;5.57;1.40;;;;;;;;;;5005074;28;20486;-49
2022/07/28 14:23:12;;;;;;;10.63;1.88;;;;;;;;;;5009138;28;20040;-54
2022/07/28 14:25:57;;;;;;;3.05;1.40;;;;;;;;;;5007692;28;20044;-51
2022/07/28 14:28:42;;;;;;;5.40;1.65;;;;;;;;;;5005119;28;20041;-50
2022/07/28 14:31:26;;;;;;;3.78;1.55;;;;;;;;;;5007757;28;20033;-51
2022/07/28 14:34:10;;;;;;;6.43;1.55;;;;;;;;;;5006689;28;20048;-54
2022/07/28 14:36:55;;;;;;;5.18;1.88;;;;;;;;;;5004565;28;20064;-50
2022/07/28 14:39:39;;;;;;;3.35;1.83;;;;;;;;;;5007197;28;20399;-51
2022/07/28 14:42:25;;;;;;;6.72;1.60;;;;;;;;;;5002640;28;20080;-51
2022/07/28 14:45:09;;;;;;;26.50;2.70;;;;;;;;;;5007449;28;20442;-53
2022/07/28 14:47:54;;;;;;;14.30;2.42;;;;;;;;;;5005441;28;20168;-53
2022/07/28 14:50:38;;;;;;;1.55;1.45;;;;;;;;;;5007490;28;20691;-51
2022/07/28 14:53:23;;;;;;;2.40;1.70;;;;;;;;;;5009299;28;20450;-52
2022/07/28 14:56:13;;;;;;;7.53;1.80;;;;;;;;;;5009690;28;20072;-54
2022/07/28 14:58:57;;;;;;;7.10;1.65;;;;;;;;;;5006663;28;20395;-52
2022/07/28 15:01:41;;;;;;;6.05;1.60;;;;;;;;;;5004305;28;20041;-49
2022/07/28 15:04:25;;;;;;;3.58;1.70;;;;;;;;;;5007928;28;20045;-52
2022/07/28 15:07:09;;;;;;;5.13;2.13;;;;;;;;;;5005452;28;20065;-49
2022/07/28 15:09:53;;;;;;;5.75;1.75;;;;;;;;;;5005362;28;20072;-52
2022/07/28 15:12:37;;;;;;;4.75;1.88;;;;;;;;;;5008752;28;20141;-49
2022/07/28 15:15:25;;;;;;;7.72;2.20;;;;;;;;;;5004474;28;20057;-53
2022/07/28 15:18:10;;;;;;;7.38;2.53;;;;;;;;;;5007101;28;20517;-52
2022/07/28 15:20:54;;;;;;;6.03;2.50;;;;;;;;;;5006221;28;20077;-53
2022/07/28 15:23:39;;;;;;;5.10;2.58;;;;;;;;;;5006475;28;20569;-53
2022/07/28 15:26:22;;;;;;;4.50;2.25;;;;;;;;;;5007175;28;20053;-49
2022/07/28 15:29:06;;;;;;;8.63;2.45;;;;;;;;;;5008305;28;20040;-54
2022/07/28 15:31:50;;;;;;;3.95;2.17;;;;;;;;;;5006063;28;20481;-52
2022/07/28 15:34:34;;;;;;;8.50;2.22;;;;;;;;;;5010003;28;20076;-51
2022/07/28 15:37:18;;;;;;;9.32;2.85;;;;;;;;;;5009419;28;20083;-54
2022/07/28 15:40:03;;;;;;;15.75;2.50;;;;;;;;;;5006337;28;20109;-53
2022/07/28 15:42:47;;;;;;;4.43;2.42;;;;;;;;;;5000002;28;20113;-52
2022/07/28 15:45:31;;;;;;;5.65;2.30;;;;;;;;;;5008385;28;20426;-51
2022/07/28 15:48:15;;;;;;;3.97;2.42;;;;;;;;;;5007469;28;20494;-48
2022/07/28 15:50:59;;;;;;;5.63;2.60;;;;;;;;;;5007346;28;20033;-52
2022/07/28 15:53:44;;;;;;;5.65;2.35;;;;;;;;;;5006463;28;20785;-51
2022/07/28 15:56:32;;;;;;;8.60;2.97;;;;;;;;;;5005910;28;20104;-48
2022/07/28 15:59:16;;;;;;;7.70;2.97;;;;;;;;;;5003719;28;20091;-54
2022/07/28 16:02:00;;;;;;;4.53;3.08;;;;;;;;;;5007529;28;20497;-52
2022/07/28 16:04:45;;;;;;;9.93;2.35;;;;;;;;;;5002859;28;20040;-51
2022/07/28 16:07:29;;;;;;;7.65;2.40;;;;;;;;;;5007028;28;20033;-50
2022/07/28 16:10:13;;;;;;;8.35;2.28;;;;;;;;;;5006248;28;20049;-51